Time;durP1;ratioP1;P1;durP2;ratioP2;P2;SDS_P1;SDS_P2;PMS_P1;PMS_P2;Temp;Humidity;BMP_temperature;BMP_pressure;BME280_temperature;BME280_humidity;BME280_pressure;Samples;Min_cycle;Max_cycle;Signal;HPM_P1;HPM_P2
2024/03/09 00:00:39;;;;;;;30.70;16.80;;;;;;;0.28;63.05;99507.52;107130;1257;67659;-38
2024/03/09 00:03:07;;;;;;;28.50;16.20;;;;;;;0.26;62.89;99507.70;107203;1257;71467;-38
2024/03/09 00:05:35;;;;;;;29.40;17.10;;;;;;;0.24;62.56;99508.95;107241;1260;59727;-37
2024/03/09 00:08:04;;;;;;;29.40;16.70;;;;;;;0.21;62.62;99508.93;107223;1257;59958;-37
2024/03/09 00:10:33;;;;;;;27.20;15.90;;;;;;;0.20;62.63;99509.63;107236;1257;73069;-37
2024/03/09 00:13:03;;;;;;;25.70;14.80;;;;;;;0.18;62.75;99508.66;107254;1258;67907;-37
2024/03/09 00:15:31;;;;;;;26.40;15.40;;;;;;;0.13;63.25;99511.71;107229;1257;73355;-37
2024/03/09 00:17:58;;;;;;;26.70;14.90;;;;;;;0.08;63.61;99512.69;106499;1257;1003378;-37
2024/03/09 00:20:36;;;;;;;31.50;15.80;;;;;;;0.12;63.61;99512.85;107223;1262;58800;-37
2024/03/09 00:23:07;;;;;;;27.10;15.00;;;;;;;0.21;63.14;99505.27;107260;1257;73059;-37
2024/03/09 00:25:37;;;;;;;27.80;16.00;;;;;;;0.23;63.17;99504.21;107226;1257;67617;-37
2024/03/09 00:28:06;;;;;;;24.40;15.50;;;;;;;0.25;63.01;99503.80;107172;1257;73056;-38
2024/03/09 00:30:34;;;;;;;25.60;16.10;;;;;;;0.28;62.93;99500.41;107177;1257;59570;-38
2024/03/09 00:33:06;;;;;;;22.10;12.40;;;;;;;0.31;62.61;99503.36;107243;1257;60000;-38
2024/03/09 00:35:36;;;;;;;26.00;15.30;;;;;;;0.33;62.50;99499.77;107295;1257;72182;-38
2024/03/09 00:38:04;;;;;;;28.00;16.00;;;;;;;0.33;62.03;99497.63;107338;1257;67733;-38
2024/03/09 00:40:32;;;;;;;24.30;14.80;;;;;;;0.31;61.92;99501.05;107255;1257;72788;-38
2024/03/09 00:43:06;;;;;;;25.60;14.60;;;;;;;0.29;61.91;99497.30;107109;1257;60805;-38
2024/03/09 00:45:34;;;;;;;26.30;15.30;;;;;;;0.29;62.23;99499.60;107245;1257;60392;-38
2024/03/09 00:48:03;;;;;;;25.80;15.10;;;;;;;0.26;62.10;99503.10;107255;1257;73878;-38
2024/03/09 00:50:32;;;;;;;25.50;15.10;;;;;;;0.25;62.21;99502.79;107280;1257;66308;-38
2024/03/09 00:52:59;;;;;;;26.10;14.80;;;;;;;0.24;61.97;99504.09;107192;1258;71445;-38
2024/03/09 00:55:27;;;;;;;27.30;15.30;;;;;;;0.22;62.07;99503.48;106486;1258;1003085;-38
2024/03/09 00:57:55;;;;;;;25.40;14.90;;;;;;;0.21;61.90;99503.23;107159;1256;60494;-38
2024/03/09 01:00:23;;;;;;;26.00;15.50;;;;;;;0.19;62.16;99504.23;107096;1257;73864;-38
2024/03/09 01:02:54;;;;;;;24.30;14.70;;;;;;;0.17;62.14;99504.41;107219;1257;67568;-38
2024/03/09 01:05:26;;;;;;;25.20;13.80;;;;;;;0.15;62.28;99503.30;107152;1256;72674;-38
2024/03/09 01:07:54;;;;;;;26.80;14.40;;;;;;;0.13;62.24;99501.85;107099;1260;60309;-38
2024/03/09 01:10:22;;;;;;;22.90;15.50;;;;;;;0.12;62.13;99503.14;106454;1257;1002938;-38
2024/03/09 01:12:50;;;;;;;26.90;14.90;;;;;;;0.11;62.22;99499.89;107156;1257;73836;-38
2024/03/09 01:15:18;;;;;;;22.50;13.90;;;;;;;0.09;62.20;99503.62;107232;1257;67692;-38
2024/03/09 01:17:46;;;;;;;20.90;12.30;;;;;;;0.06;61.94;99502.67;107230;1257;72665;-38
2024/03/09 01:20:15;;;;;;;23.50;13.40;;;;;;;0.04;62.13;99498.45;107293;1261;60552;-38
2024/03/09 01:22:45;;;;;;;24.40;14.50;;;;;;;0.02;62.27;99500.77;107219;1262;60329;-38
2024/03/09 01:25:14;;;;;;;24.10;14.60;;;;;;;-0.00;62.04;99492.01;107258;1257;73860;-38
2024/03/09 01:27:41;;;;;;;24.50;13.60;;;;;;;-0.04;62.49;99494.54;106493;1261;1002834;-38
2024/03/09 01:30:09;;;;;;;24.70;14.10;;;;;;;-0.06;62.32;99490.05;106477;1257;1003814;-38
2024/03/09 01:32:43;;;;;;;25.40;13.30;;;;;;;-0.08;62.29;99491.98;107259;1258;60269;-37
2024/03/09 01:35:12;;;;;;;23.10;13.10;;;;;;;-0.10;62.34;99492.45;107318;1257;60289;-38
2024/03/09 01:37:41;;;;;;;21.10;12.30;;;;;;;-0.13;62.29;99489.48;107236;1258;73890;-38
2024/03/09 01:40:10;;;;;;;21.30;12.40;;;;;;;-0.14;62.40;99486.47;107077;1257;67590;-37
2024/03/09 01:42:38;;;;;;;23.60;13.50;;;;;;;-0.17;62.45;99487.95;106488;1257;1003016;-38
2024/03/09 01:45:07;;;;;;;22.80;12.60;;;;;;;-0.21;62.73;99489.23;107040;1258;60472;-38
2024/03/09 01:47:35;;;;;;;14.90;8.90;;;;;;;-0.26;62.73;99489.55;107116;1262;60289;-37
2024/03/09 01:50:03;;;;;;;23.30;12.90;;;;;;;-0.30;63.14;99490.61;106962;1256;73800;-37
2024/03/09 01:52:34;;;;;;;23.10;12.90;;;;;;;-0.34;63.13;99492.10;107171;1257;66779;-38
2024/03/09 01:55:04;;;;;;;22.60;12.70;;;;;;;-0.29;62.69;99495.72;106504;1257;1003069;-38
2024/03/09 01:57:32;;;;;;;20.40;12.60;;;;;;;-0.21;62.35;99494.81;107268;1263;60335;-38
2024/03/09 02:00:01;;;;;;;25.20;13.20;;;;;;;-0.17;62.27;99494.66;107175;1263;60421;-38
2024/03/09 02:02:32;;;;;;;22.70;12.80;;;;;;;-0.17;62.08;99492.64;107095;1258;74809;-38
2024/03/09 02:05:03;;;;;;;22.10;12.90;;;;;;;-0.16;62.07;99494.45;107280;1263;67617;-38
2024/03/09 02:07:33;;;;;;;23.20;13.40;;;;;;;-0.16;62.04;99497.70;107287;1261;72479;-38
2024/03/09 02:10:00;;;;;;;;;;;;;;;-0.16;61.87;99499.83;107312;1257;60791;-38
2024/03/09 02:12:28;;;;;;;22.80;13.20;;;;;;;-0.18;61.65;99499.36;107295;1257;59654;-38
2024/03/09 02:14:55;;;;;;;22.90;13.10;;;;;;;-0.21;61.74;99497.81;107264;1261;73864;-37
2024/03/09 02:17:24;;;;;;;22.60;12.80;;;;;;;-0.21;61.86;99499.61;107291;1257;66375;-37
2024/03/09 02:19:51;;;;;;;21.90;13.40;;;;;;;-0.21;61.82;99499.57;107173;1261;72732;-38
2024/03/09 02:22:21;;;;;;;21.30;13.10;;;;;;;-0.21;61.58;99498.39;107194;1257;60190;-37
2024/03/09 02:24:54;;;;;;;23.10;13.80;;;;;;;-0.23;61.44;99502.62;107242;1258;60431;-38
2024/03/09 02:27:25;;;;;;;26.00;13.20;;;;;;;-0.25;61.71;99499.36;107314;1257;72555;-38
2024/03/09 02:29:53;;;;;;;21.20;12.80;;;;;;;-0.26;61.97;99500.32;107287;1258;67175;-38
2024/03/09 02:32:21;;;;;;;25.00;13.20;;;;;;;-0.29;61.98;99499.27;107286;1257;72816;-38
2024/03/09 02:34:49;;;;;;;21.90;12.50;;;;;;;-0.29;61.86;99498.48;106514;1257;1002747;-38
2024/03/09 02:37:20;;;;;;;23.80;13.40;;;;;;;-0.31;62.05;99499.84;107250;1262;60405;-38
2024/03/09 02:39:48;;;;;;;23.40;12.80;;;;;;;-0.35;61.95;99502.77;107258;1257;73848;-38
2024/03/09 02:42:15;;;;;;;22.00;12.50;;;;;;;-0.38;62.05;99504.23;107260;1256;65484;-38
2024/03/09 02:44:43;;;;;;;25.80;13.40;;;;;;;-0.41;62.08;99506.62;107250;1260;72733;-38
2024/03/09 02:47:11;;;;;;;22.60;13.30;;;;;;;-0.44;62.02;99504.87;107281;1257;60453;-37
2024/03/09 02:49:38;;;;;;;26.40;14.20;;;;;;;-0.46;62.15;99504.75;107197;1263;60287;-37
2024/03/09 02:52:08;;;;;;;21.50;13.40;;;;;;;-0.47;62.21;99505.28;107191;1258;73689;-38
2024/03/09 02:54:36;;;;;;;27.40;13.60;;;;;;;-0.49;62.27;99506.21;107329;1261;67550;-38
2024/03/09 02:57:07;;;;;;;24.90;13.30;;;;;;;-0.52;62.00;99501.98;107231;1257;72671;-38
2024/03/09 02:59:35;;;;;;;24.30;13.60;;;;;;;-0.54;61.93;99502.98;107290;1258;60338;-38
2024/03/09 03:02:14;;;;;;;21.30;13.10;;;;;;;-0.56;62.00;99496.12;107253;1263;60280;-38
2024/03/09 03:04:42;;;;;;;23.70;13.90;;;;;;;-0.57;62.23;99500.27;107257;1258;73859;-38
2024/03/09 03:07:10;;;;;;;22.70;13.10;;;;;;;-0.59;62.27;99504.15;107285;1257;67629;-38
2024/03/09 03:09:37;;;;;;;21.60;12.80;;;;;;;-0.61;62.31;99501.13;107252;1261;72651;-38
2024/03/09 03:12:07;;;;;;;25.00;13.00;;;;;;;-0.62;62.29;99502.62;106516;1260;1002709;-38
2024/03/09 03:14:39;;;;;;;25.70;13.60;;;;;;;-0.66;62.58;99501.52;107304;1260;60286;-38
2024/03/09 03:17:07;;;;;;;23.60;12.60;;;;;;;-0.72;62.80;99500.70;106531;1257;1002915;-38
2024/03/09 03:19:35;;;;;;;23.20;12.90;;;;;;;-0.76;63.21;99492.40;107289;1258;67560;-38
2024/03/09 03:22:05;;;;;;;21.00;12.50;;;;;;;-0.76;63.33;99496.27;107293;1257;72749;-38
2024/03/09 03:24:32;;;;;;;26.10;13.10;;;;;;;-0.72;63.46;99500.07;107267;1261;60450;-38
2024/03/09 03:27:01;;;;;;;19.80;12.20;;;;;;;-0.70;63.44;99499.73;106526;1261;1003348;-38
2024/03/09 03:29:28;;;;;;;22.20;12.60;;;;;;;-0.67;63.33;99498.16;107208;1263;73857;-38
2024/03/09 03:31:56;;;;;;;27.20;13.70;;;;;;;-0.62;63.16;99502.20;107196;1260;67268;-37
2024/03/09 03:34:25;;;;;;;26.40;14.20;;;;;;;-0.59;63.00;99499.57;107154;1257;71669;-37
2024/03/09 03:36:56;;;;;;;28.00;14.00;;;;;;;-0.57;62.85;99499.90;107266;1260;60393;-38
2024/03/09 03:39:27;;;;;;;24.30;12.90;;;;;;;-0.61;62.89;99493.40;107215;1260;60421;-38
2024/03/09 03:41:56;;;;;;;24.60;14.00;;;;;;;-0.55;62.96;99498.58;106166;1261;1003762;-38
2024/03/09 03:44:29;;;;;;;18.10;10.60;;;;;;;-0.54;62.95;99501.70;107213;1262;67716;-38
2024/03/09 03:46:57;;;;;;;26.00;14.40;;;;;;;-0.53;62.95;99495.04;107214;1263;72675;-38
2024/03/09 03:49:26;;;;;;;24.30;13.60;;;;;;;-0.56;62.66;99494.27;107251;1258;60543;-37
2024/03/09 03:51:55;;;;;;;24.50;13.80;;;;;;;-0.61;62.84;99492.29;107279;1258;60419;-37
2024/03/09 03:54:23;;;;;;;24.50;14.10;;;;;;;-0.62;62.72;99492.02;107268;1257;72638;-38
2024/03/09 03:56:53;;;;;;;25.60;13.90;;;;;;;-0.64;62.99;99491.80;107232;1261;66108;-38
2024/03/09 03:59:21;;;;;;;26.90;14.50;;;;;;;-0.65;62.63;99489.56;107262;1260;71393;-37
2024/03/09 04:01:49;;;;;;;25.70;14.10;;;;;;;-0.67;62.74;99489.84;107276;1258;60391;-38
2024/03/09 04:04:17;;;;;;;23.60;13.80;;;;;;;-0.69;62.86;99494.30;106523;1257;1003055;-38
2024/03/09 04:06:44;;;;;;;21.00;13.50;;;;;;;-0.70;62.81;99492.45;107255;1258;73442;-38
2024/03/09 04:09:15;;;;;;;32.40;14.60;;;;;;;-0.72;62.87;99489.89;107319;1260;67607;-37
2024/03/09 04:11:43;;;;;;;23.00;13.30;;;;;;;-0.74;62.89;99488.70;107249;1257;72726;-38
2024/03/09 04:14:11;;;;;;;22.30;11.30;;;;;;;-0.76;62.99;99492.66;107218;1260;60392;-38
2024/03/09 04:16:39;;;;;;;25.20;13.60;;;;;;;-0.78;63.20;99492.09;107296;1257;60286;-38
2024/03/09 04:19:07;;;;;;;26.00;13.50;;;;;;;-0.80;63.03;99492.80;107261;1258;72870;-37
2024/03/09 04:21:35;;;;;;;22.90;13.20;;;;;;;-0.82;63.21;99491.44;107252;1258;68030;-38
2024/03/09 04:24:03;;;;;;;23.30;14.50;;;;;;;-0.83;63.26;99493.27;107233;1257;72694;-38
2024/03/09 04:26:30;;;;;;;22.90;12.50;;;;;;;-0.78;63.29;99495.29;107222;1257;60858;-37
2024/03/09 04:29:01;;;;;;;28.20;13.80;;;;;;;-0.67;63.29;99496.30;107291;1257;60021;-38
2024/03/09 04:31:32;;;;;;;27.50;13.40;;;;;;;-0.62;63.24;99501.88;107274;1257;72775;-37
2024/03/09 04:34:02;;;;;;;26.30;13.80;;;;;;;-0.58;63.29;99501.20;106545;1257;1003056;-38
2024/03/09 04:36:29;;;;;;;30.80;14.10;;;;;;;-0.56;63.14;99502.67;106460;1257;1003657;-37
2024/03/09 04:39:00;;;;;;;26.90;13.50;;;;;;;-0.54;63.06;99503.93;107244;1259;60421;-38
2024/03/09 04:41:29;;;;;;;26.20;14.60;;;;;;;-0.52;63.09;99508.85;107299;1258;60446;-38
2024/03/09 04:43:56;;;;;;;22.10;12.80;;;;;;;-0.51;63.26;99508.53;107235;1260;73859;-37
2024/03/09 04:46:24;;;;;;;23.20;13.30;;;;;;;-0.50;63.28;99510.61;107279;1258;66554;-37
2024/03/09 04:48:51;;;;;;;24.00;13.40;;;;;;;-0.50;63.36;99514.34;107234;1260;72856;-38
2024/03/09 04:51:19;;;;;;;25.40;14.00;;;;;;;-0.51;63.10;99516.58;107231;1260;60338;-38
2024/03/09 04:53:47;;;;;;;23.70;13.40;;;;;;;-0.53;63.31;99516.38;106542;1261;1003366;-37
2024/03/09 04:56:14;;;;;;;22.30;12.80;;;;;;;-0.54;63.25;99515.55;107281;1260;73864;-38
2024/03/09 04:58:42;;;;;;;24.50;14.00;;;;;;;-0.56;63.10;99516.98;107310;1257;66285;-38
2024/03/09 05:01:10;;;;;;;23.90;12.90;;;;;;;-0.59;63.32;99520.50;107324;1260;72676;-38
2024/03/09 05:03:38;;;;;;;23.40;13.20;;;;;;;-0.60;63.34;99521.95;107215;1258;60303;-37
2024/03/09 05:06:06;;;;;;;23.70;13.00;;;;;;;-0.61;63.56;99524.35;107228;1260;60145;-37
2024/03/09 05:08:33;;;;;;;26.80;12.80;;;;;;;-0.63;63.45;99522.80;107196;1257;73934;-37
2024/03/09 05:11:01;;;;;;;24.10;14.70;;;;;;;-0.64;63.62;99527.90;107245;1257;65907;-37
2024/03/09 05:13:29;;;;;;;25.80;13.10;;;;;;;-0.67;63.77;99529.35;106541;1257;1002707;-38
2024/03/09 05:15:56;;;;;;;21.50;12.20;;;;;;;-0.62;63.82;99530.80;107260;1257;60870;-38
2024/03/09 05:18:24;;;;;;;21.80;13.20;;;;;;;-0.51;63.99;99530.69;107243;1257;60335;-37
2024/03/09 05:20:51;;;;;;;24.70;12.90;;;;;;;-0.44;64.05;99532.31;107252;1258;73843;-37
2024/03/09 05:23:19;;;;;;;27.10;13.40;;;;;;;-0.39;63.95;99536.37;107286;1257;66621;-37
2024/03/09 05:25:46;;;;;;;27.00;14.10;;;;;;;-0.36;63.96;99530.15;107197;1258;73736;-37
2024/03/09 05:28:15;;;;;;;24.60;13.80;;;;;;;-0.25;63.66;99541.34;107242;1258;60315;-37
2024/03/09 05:30:43;;;;;;;23.30;13.80;;;;;;;-0.22;63.66;99545.88;107293;1257;60281;-37
2024/03/09 05:33:13;;;;;;;24.00;13.30;;;;;;;-0.19;63.92;99547.76;107288;1257;73903;-38
2024/03/09 05:35:41;;;;;;;25.00;14.00;;;;;;;-0.16;63.68;99547.67;107279;1261;66303;-37
2024/03/09 05:38:09;;;;;;;23.20;13.70;;;;;;;-0.14;63.77;99549.83;107244;1258;72740;-37
2024/03/09 05:40:37;;;;;;;25.20;13.60;;;;;;;-0.11;63.80;99553.16;107238;1257;60562;-37
2024/03/09 05:43:11;;;;;;;27.30;14.50;;;;;;;-0.13;63.62;99548.48;107279;1260;60312;-37
2024/03/09 05:45:41;;;;;;;23.20;13.10;;;;;;;-0.06;63.87;99564.98;107270;1257;72543;-38
2024/03/09 05:48:10;;;;;;;23.80;14.60;;;;;;;-0.04;64.02;99567.89;107198;1256;67507;-38
2024/03/09 05:50:38;;;;;;;25.60;13.80;;;;;;;-0.04;63.90;99571.35;106524;1257;1003222;-38
2024/03/09 05:53:06;;;;;;;21.80;13.10;;;;;;;-0.01;64.24;99569.40;107287;1258;60592;-38
2024/03/09 05:55:34;;;;;;;25.30;13.60;;;;;;;0.04;64.19;99571.44;107325;1261;60322;-37
2024/03/09 05:58:03;;;;;;;26.70;13.70;;;;;;;0.12;63.94;99574.00;107345;1257;73843;-38
2024/03/09 06:00:31;;;;;;;23.10;12.60;;;;;;;0.26;64.06;99577.60;107348;1257;67636;-38
2024/03/09 06:03:06;;;;;;;20.70;13.00;;;;;;;0.36;63.83;99575.65;107300;1260;72639;-38
2024/03/09 06:05:35;;;;;;;23.80;12.60;;;;;;;0.45;64.00;99572.83;107320;1257;60412;-38
2024/03/09 06:08:04;;;;;;;26.40;12.80;;;;;;;0.56;63.83;99572.09;107336;1260;60948;-38
2024/03/09 06:10:32;;;;;;;22.60;13.50;;;;;;;0.64;63.59;99572.45;107374;1260;72419;-38
2024/03/09 06:13:07;;;;;;;22.50;12.60;;;;;;;0.71;63.69;99574.33;107270;1257;67605;-38
2024/03/09 06:15:34;;;;;;;24.40;13.10;;;;;;;0.79;63.57;99573.36;107146;1261;72667;-38
2024/03/09 06:18:02;;;;;;;23.90;13.80;;;;;;;0.83;63.51;99574.31;107113;1258;60433;-38
2024/03/09 06:20:32;;;;;;;20.90;12.60;;;;;;;0.87;63.49;99578.73;106356;1257;1003257;-38
2024/03/09 06:23:00;;;;;;;;;;;;;;;0.94;63.48;99578.79;107251;1257;74158;-38
2024/03/09 06:25:29;;;;;;;23.00;13.40;;;;;;;1.03;63.47;99585.85;107161;1257;67569;-38
2024/03/09 06:28:18;;;;;;;21.20;12.70;;;;;;;1.11;63.71;99584.02;107191;1257;72794;-38
2024/03/09 06:30:45;;;;;;;22.80;12.60;;;;;;;1.24;63.69;99589.36;107127;1263;60547;-38
2024/03/09 06:33:14;;;;;;;21.20;11.80;;;;;;;1.40;63.44;99584.08;107194;1257;60051;-38
2024/03/09 06:35:41;;;;;;;19.50;11.70;;;;;;;1.59;62.72;99585.71;107210;1257;73851;-38
2024/03/09 06:38:13;;;;;;;21.30;11.30;;;;;;;1.72;62.42;99589.91;107202;1264;67605;-38
2024/03/09 06:40:42;;;;;;;22.30;12.20;;;;;;;1.82;62.06;99589.95;107199;1258;72660;-38
2024/03/09 06:43:10;;;;;;;22.20;12.50;;;;;;;1.93;61.94;99592.20;107221;1257;60383;-38
2024/03/09 06:45:42;;;;;;;21.70;12.70;;;;;;;2.05;61.49;99593.45;107233;1257;59581;-38
2024/03/09 06:48:09;;;;;;;20.60;11.90;;;;;;;2.13;61.38;99593.24;107232;1257;73875;-38
2024/03/09 06:50:43;;;;;;;21.80;11.80;;;;;;;2.25;61.34;99592.33;106441;1257;1002850;-38
2024/03/09 06:53:13;;;;;;;21.50;10.30;;;;;;;2.33;60.59;99592.58;107194;1257;72706;-38
2024/03/09 06:55:41;;;;;;;21.00;11.00;;;;;;;2.38;60.58;99595.00;107055;1258;60443;-38
2024/03/09 06:58:08;;;;;;;20.30;11.20;;;;;;;2.46;60.69;99593.11;107105;1257;60312;-38
2024/03/09 07:00:37;;;;;;;17.30;9.80;;;;;;;2.50;60.43;99602.83;107172;1258;73339;-38
2024/03/09 07:03:05;;;;;;;20.70;11.50;;;;;;;2.51;60.16;99602.33;107213;1257;66307;-38
2024/03/09 07:05:36;;;;;;;16.30;10.10;;;;;;;2.53;59.91;99605.55;107201;1256;72658;-38
2024/03/09 07:08:09;;;;;;;18.50;10.70;;;;;;;2.53;59.84;99604.30;106444;1257;1005421;-38
2024/03/09 07:10:38;;;;;;;19.80;10.60;;;;;;;2.56;59.71;99608.64;107358;1256;60517;-38
2024/03/09 07:13:06;;;;;;;19.10;10.30;;;;;;;2.54;59.86;99604.23;107271;1256;73849;-38
2024/03/09 07:15:34;;;;;;;20.30;11.50;;;;;;;2.63;59.93;99613.98;107240;1257;67577;-38
2024/03/09 07:18:03;;;;;;;19.60;10.90;;;;;;;2.71;60.08;99615.65;107319;1258;72704;-38
2024/03/09 07:20:33;;;;;;;18.30;11.00;;;;;;;2.81;60.25;99619.48;107309;1257;60176;-38
2024/03/09 07:23:01;;;;;;;18.60;10.30;;;;;;;2.91;59.72;99622.91;107277;1256;60303;-38
2024/03/09 07:25:30;;;;;;;13.90;9.30;;;;;;;2.96;59.51;99623.90;107218;1257;73898;-38
2024/03/09 07:27:59;;;;;;;18.40;9.10;;;;;;;3.02;59.28;99624.52;107286;1257;66290;-38
2024/03/09 07:30:27;;;;;;;19.00;9.60;;;;;;;3.09;58.69;99626.84;107246;1257;72667;-38
2024/03/09 07:32:55;;;;;;;15.50;9.00;;;;;;;3.13;58.31;99630.09;107124;1258;60402;-38
2024/03/09 07:35:27;;;;;;;19.40;9.60;;;;;;;3.14;58.32;99629.35;107145;1256;60453;-38
2024/03/09 07:37:59;;;;;;;18.90;9.50;;;;;;;3.17;58.24;99629.55;107259;1256;73824;-38
2024/03/09 07:40:32;;;;;;;16.20;8.80;;;;;;;3.20;58.37;99628.88;107311;1260;67660;-38
2024/03/09 07:43:01;;;;;;;16.20;8.10;;;;;;;3.27;58.05;99623.41;107230;1257;72684;-38
2024/03/09 07:45:29;;;;;;;18.30;8.80;;;;;;;3.32;57.94;99616.05;106445;1257;1003067;-37
2024/03/09 07:47:58;;;;;;;13.90;8.50;;;;;;;3.48;57.65;99628.64;107289;1257;60667;-38
2024/03/09 07:50:27;;;;;;;16.30;9.10;;;;;;;3.57;57.28;99628.56;107212;1257;73841;-38
2024/03/09 07:52:56;;;;;;;14.90;8.70;;;;;;;3.65;57.19;99628.14;106523;1257;1005762;-38
2024/03/09 07:55:27;;;;;;;14.70;8.90;;;;;;;3.72;56.89;99625.66;107259;1257;72683;-38
2024/03/09 07:57:58;;;;;;;15.80;8.30;;;;;;;3.73;56.61;99612.89;107251;1260;60316;-38
2024/03/09 08:00:45;;;;;;;12.90;7.60;;;;;;;3.84;56.28;99621.28;107238;1257;60818;-38
2024/03/09 08:03:13;;;;;;;15.20;8.90;;;;;;;3.90;56.22;99622.82;107296;1257;72557;-38
2024/03/09 08:05:41;;;;;;;15.40;9.10;;;;;;;3.99;56.15;99623.73;107164;1257;67877;-38
2024/03/09 08:08:11;;;;;;;16.00;9.60;;;;;;;4.04;55.79;99623.13;107186;1257;72651;-38
2024/03/09 08:10:46;;;;;;;17.90;9.10;;;;;;;4.11;55.59;99623.09;107126;1256;60389;-38
2024/03/09 08:13:19;;;;;;;18.00;9.00;;;;;;;4.17;55.19;99624.27;107097;1257;60316;-38
2024/03/09 08:15:47;;;;;;;14.10;8.80;;;;;;;4.21;55.19;99621.15;107095;1262;73893;-38
2024/03/09 08:18:15;;;;;;;18.10;10.70;;;;;;;4.28;55.07;99620.48;107137;1257;66771;-38
2024/03/09 08:20:43;;;;;;;16.70;9.00;;;;;;;4.36;54.97;99618.20;107194;1257;72692;-38
2024/03/09 08:23:12;;;;;;;18.60;9.70;;;;;;;4.46;54.59;99619.96;107175;1263;60315;-38
2024/03/09 08:25:41;;;;;;;13.60;8.30;;;;;;;4.51;54.66;99621.11;107242;1257;60431;-38
2024/03/09 08:28:10;;;;;;;16.50;8.80;;;;;;;4.55;54.55;99625.38;107264;1257;74155;-38
2024/03/09 08:30:37;;;;;;;16.00;9.50;;;;;;;4.59;54.26;99622.04;107229;1257;67688;-38
2024/03/09 08:33:05;;;;;;;14.60;9.00;;;;;;;4.64;54.13;99624.64;107208;1258;72739;-38
2024/03/09 08:35:33;;;;;;;17.40;9.60;;;;;;;4.69;53.94;99626.90;107181;1256;60405;-38
2024/03/09 08:38:01;;;;;;;15.00;9.70;;;;;;;4.71;53.68;99628.13;107221;1258;60322;-38
2024/03/09 08:40:32;;;;;;;16.50;9.50;;;;;;;4.71;53.89;99626.20;107199;1258;73881;-38
2024/03/09 08:43:00;;;;;;;15.70;9.00;;;;;;;4.73;53.59;99625.30;107095;1257;183776;-38
2024/03/09 08:48:13;;;;;;;15.10;9.00;;;;;;;4.84;53.46;99629.94;104048;1291;600399;-37
2024/03/09 08:50:41;;;;;;;15.80;9.20;;;;;;;4.89;53.32;99629.32;106609;1266;59277;-38
2024/03/09 08:53:08;;;;;;;15.20;9.30;;;;;;;4.98;53.07;99628.66;106630;1266;59258;-37
2024/03/09 08:55:36;;;;;;;14.00;9.30;;;;;;;5.07;52.84;99629.41;106664;1267;72244;-37
2024/03/09 08:58:05;;;;;;;16.00;9.60;;;;;;;5.12;52.64;99631.82;106677;1266;67688;-37
2024/03/09 09:00:33;;;;;;;14.80;9.10;;;;;;;5.17;52.28;99634.19;106668;1265;71347;-38
2024/03/09 09:03:05;;;;;;;18.10;8.80;;;;;;;5.20;52.32;99640.33;106721;1267;171501;-38
2024/03/09 09:05:34;;;;;;;13.30;9.30;;;;;;;5.22;52.30;99640.27;106719;1264;60056;-38
2024/03/09 09:08:02;;;;;;;17.80;9.80;;;;;;;5.27;52.45;99639.83;106854;1264;72231;-38
2024/03/09 09:10:29;;;;;;;16.30;9.70;;;;;;;5.34;52.43;99636.63;107305;1257;67566;-38
2024/03/09 09:12:57;;;;;;;17.30;9.50;;;;;;;5.41;52.35;99635.15;107269;1257;72680;-38
2024/03/09 09:15:25;;;;;;;17.20;8.80;;;;;;;5.48;52.02;99637.61;107294;1257;61430;-38
2024/03/09 09:17:58;;;;;;;15.10;9.00;;;;;;;5.55;51.73;99637.28;107253;1258;59561;-38
2024/03/09 09:20:25;;;;;;;19.90;9.50;;;;;;;5.62;51.55;99638.08;107224;1258;73065;-38
2024/03/09 09:22:55;;;;;;;14.80;8.00;;;;;;;5.70;51.21;99637.85;107175;1257;66756;-38
2024/03/09 09:25:25;;;;;;;16.10;8.80;;;;;;;5.81;50.87;99639.92;107302;1257;71503;-38
2024/03/09 09:27:59;;;;;;;15.30;8.20;;;;;;;5.92;50.93;99636.12;107174;1256;59599;-38
2024/03/09 09:30:27;;;;;;;17.30;8.80;;;;;;;6.01;50.30;99635.59;107239;1257;60013;-38
2024/03/09 09:32:56;;;;;;;14.00;8.30;;;;;;;6.12;50.28;99634.09;107239;1257;73203;-38
2024/03/09 09:35:25;;;;;;;13.00;8.50;;;;;;;6.27;50.10;99639.50;107311;1257;67862;-38
2024/03/09 09:37:57;;;;;;;15.00;8.70;;;;;;;6.43;49.92;99636.19;107265;1257;72790;-38
2024/03/09 09:40:26;;;;;;;15.00;7.90;;;;;;;6.61;49.51;99636.98;107724;1253;59775;-38
2024/03/09 09:42:54;;;;;;;15.60;7.30;;;;;;;6.77;49.19;99639.42;107543;1253;59729;-38
2024/03/09 09:45:22;;;;;;;13.70;8.00;;;;;;;6.92;48.68;99642.64;107556;1252;73188;-38
2024/03/09 09:47:50;;;;;;;11.70;6.50;;;;;;;7.07;47.96;99642.27;107612;1254;67200;-38
2024/03/09 09:50:18;;;;;;;9.90;6.00;;;;;;;7.19;47.55;99640.50;107644;1256;72413;-38
2024/03/09 09:52:48;;;;;;;11.60;6.50;;;;;;;7.32;47.03;99636.63;107661;1254;59501;-38
2024/03/09 09:55:19;;;;;;;;;;;;;;;7.42;46.64;99639.08;107719;1254;59970;-38
2024/03/09 09:57:48;;;;;;;11.30;6.50;;;;;;;7.52;46.51;99638.83;107626;1252;73029;-38
2024/03/09 10:00:17;;;;;;;13.60;6.90;;;;;;;7.62;46.21;99638.61;107504;1254;67554;-38
2024/03/09 10:02:45;;;;;;;11.50;6.60;;;;;;;7.75;46.00;99636.70;107608;1254;71181;-38
2024/03/09 10:05:18;;;;;;;9.70;6.10;;;;;;;7.87;45.78;99634.94;107552;1252;61582;-39
2024/03/09 10:08:04;;;;;;;13.10;6.80;;;;;;;7.98;45.08;99632.98;107595;1253;59570;-38
2024/03/09 10:10:35;;;;;;;12.30;7.00;;;;;;;8.08;44.39;99636.10;107570;1252;73090;-38
2024/03/09 10:13:13;;;;;;;11.90;6.20;;;;;;;8.14;44.45;99635.60;107516;1253;67668;-38
2024/03/09 10:15:44;;;;;;;13.00;6.30;;;;;;;8.26;44.18;99629.36;107584;1254;73249;-39
2024/03/09 10:18:13;;;;;;;9.00;5.40;;;;;;;8.35;43.58;99628.59;107613;1252;59701;-38
2024/03/09 10:20:41;;;;;;;9.80;5.20;;;;;;;8.34;42.98;99628.89;107740;1253;59637;-38
2024/03/09 10:23:12;;;;;;;13.20;7.30;;;;;;;8.25;42.66;99624.40;107637;1254;73149;-38
2024/03/09 10:25:40;;;;;;;10.40;5.70;;;;;;;8.20;43.18;99625.79;107626;1254;66266;-38
2024/03/09 10:28:10;;;;;;;7.90;4.90;;;;;;;8.28;43.57;99624.96;107609;1254;72677;-38
2024/03/09 10:30:38;;;;;;;8.30;5.30;;;;;;;8.43;43.22;99624.90;107727;1254;59644;-38
2024/03/09 10:33:15;;;;;;;8.40;4.70;;;;;;;8.59;42.90;99623.23;107629;1254;60241;-38
2024/03/09 10:35:46;;;;;;;9.30;4.70;;;;;;;8.80;42.27;99619.11;107663;1254;75091;-38
2024/03/09 10:38:14;;;;;;;10.40;4.80;;;;;;;8.91;41.25;99619.41;107621;1252;66283;-38
2024/03/09 10:40:42;;;;;;;9.00;4.70;;;;;;;8.86;41.50;99618.60;107517;1252;72628;-38
2024/03/09 10:43:11;;;;;;;12.10;6.00;;;;;;;8.86;41.61;99620.36;107570;1254;59895;-38
2024/03/09 10:45:40;;;;;;;10.20;5.30;;;;;;;8.92;41.50;99622.02;107525;1253;62243;-38
2024/03/09 10:48:09;;;;;;;8.40;5.50;;;;;;;9.02;41.31;99624.54;107624;1252;73204;-38
2024/03/09 10:50:54;;;;;;;11.30;5.50;;;;;;;9.16;41.39;99621.48;107564;1254;67601;-38
2024/03/09 10:53:27;;;;;;;11.70;5.30;;;;;;;9.43;41.49;99621.70;107626;1256;72748;-38
2024/03/09 10:56:21;;;;;;;12.80;5.70;;;;;;;9.72;40.71;99618.05;107601;1254;59928;-38
2024/03/09 10:58:52;;;;;;;9.60;5.60;;;;;;;9.95;40.11;99616.89;107670;1256;59315;-38
2024/03/09 11:01:21;;;;;;;10.10;5.10;;;;;;;10.07;39.89;99617.93;107710;1254;73039;-37
2024/03/09 11:03:50;;;;;;;12.70;5.60;;;;;;;10.12;39.31;99612.73;107620;1254;67791;-38
2024/03/09 11:06:19;;;;;;;9.20;5.40;;;;;;;10.10;39.33;99610.27;107738;1253;74867;-38
2024/03/09 11:08:53;;;;;;;7.70;4.40;;;;;;;10.19;39.47;99607.80;107617;1254;61108;-38
2024/03/09 11:11:23;;;;;;;11.60;4.60;;;;;;;10.39;38.81;99607.92;107594;1254;62224;-39
2024/03/09 11:13:51;;;;;;;11.00;4.30;;;;;;;10.54;38.31;99607.33;107606;1252;73387;-39
2024/03/09 11:16:21;;;;;;;7.70;4.40;;;;;;;10.64;38.21;99604.15;107555;1254;66963;-39
2024/03/09 11:18:56;;;;;;;7.60;4.40;;;;;;;10.75;37.81;99605.71;107528;1254;73108;-39
2024/03/09 11:21:34;;;;;;;9.40;4.50;;;;;;;10.75;37.64;99606.57;107638;1254;60047;-39
2024/03/09 11:24:06;;;;;;;8.20;4.50;;;;;;;10.80;37.63;99598.70;107692;1254;60105;-39
2024/03/09 11:26:38;;;;;;;8.70;4.00;;;;;;;11.02;37.54;99596.69;107592;1252;74181;-39
2024/03/09 11:29:10;;;;;;;9.40;4.40;;;;;;;11.15;36.25;99600.13;107554;1254;66750;-38